createdAt,value
2022-10-16T00:02:17.769Z,13.30
2022-10-16T00:07:21.964Z,13.34
2022-10-16T00:12:25.099Z,13.10
2022-10-16T00:17:27.996Z,13.15
2022-10-16T00:22:32.306Z,13.22
2022-10-16T00:27:35.736Z,13.39
2022-10-16T00:32:38.463Z,13.35
2022-10-16T00:37:42.600Z,13.32
2022-10-16T00:42:45.366Z,13.32
2022-10-16T00:47:52.378Z,13.31
2022-10-16T00:52:57.914Z,13.27
2022-10-16T00:58:01.604Z,13.25
2022-10-16T01:03:05.065Z,13.26
2022-10-16T01:08:15.781Z,13.20
2022-10-16T01:13:23.316Z,13.21
2022-10-16T01:18:33.437Z,13.16
2022-10-16T01:23:51.504Z,13.21
2022-10-16T01:28:59.437Z,13.14
2022-10-16T01:34:06.496Z,13.18
2022-10-16T01:39:12.696Z,13.21
2022-10-16T01:44:22.069Z,13.12
2022-10-16T01:49:28.438Z,13.10
2022-10-16T01:54:34.201Z,13.04
2022-10-16T01:59:45.271Z,12.92
2022-10-16T02:04:51.696Z,12.95
2022-10-16T02:09:54.532Z,12.98
2022-10-16T02:14:58.956Z,12.79
2022-10-16T02:20:02.471Z,12.94
2022-10-16T02:25:10.457Z,12.78
2022-10-16T02:30:21.220Z,12.58
2022-10-16T02:35:25.653Z,12.57
2022-10-16T02:40:29.670Z,12.48
2022-10-16T02:45:34.128Z,12.50
2022-10-16T02:50:36.966Z,12.32
2022-10-16T02:55:39.756Z,12.37
2022-10-16T03:00:44.142Z,12.54
2022-10-16T03:05:47.527Z,12.56
2022-10-16T03:10:50.300Z,12.52
2022-10-16T03:15:54.188Z,12.57
2022-10-16T03:20:56.992Z,12.49
2022-10-16T03:26:00.006Z,12.58
2022-10-16T03:31:04.181Z,12.51
2022-10-16T03:36:07.291Z,12.60
2022-10-16T03:41:10.124Z,12.50
2022-10-16T03:46:14.281Z,12.54
2022-10-16T03:51:17.022Z,12.36
2022-10-16T03:56:19.584Z,12.31
2022-10-16T04:01:23.728Z,12.50
2022-10-16T04:06:26.480Z,12.58
2022-10-16T04:11:29.220Z,12.65
2022-10-16T04:16:33.423Z,12.78
2022-10-16T04:21:36.190Z,12.61
2022-10-16T04:26:39.122Z,12.80
2022-10-16T04:31:43.288Z,12.66
2022-10-16T04:36:46.211Z,12.75
2022-10-16T04:41:48.920Z,12.87
2022-10-16T04:46:53.756Z,12.94
2022-10-16T04:51:56.514Z,12.95
2022-10-16T04:56:59.648Z,13.00
2022-10-16T05:02:03.834Z,13.10
2022-10-16T05:07:06.556Z,12.94
2022-10-16T05:12:09.154Z,13.16
2022-10-16T05:17:13.311Z,13.21
2022-10-16T05:22:16.034Z,13.17
2022-10-16T05:27:20.623Z,13.11
2022-10-16T05:32:24.756Z,13.02
2022-10-16T05:37:27.934Z,12.84
2022-10-16T05:42:30.943Z,12.89
2022-10-16T05:47:35.050Z,12.91
2022-10-16T05:52:37.781Z,12.90
2022-10-16T05:57:40.609Z,12.72
2022-10-16T06:02:44.946Z,12.83
2022-10-16T06:07:47.682Z,12.88
2022-10-16T06:12:50.265Z,12.96
2022-10-16T06:17:54.393Z,12.93
2022-10-16T06:22:57.380Z,12.97
2022-10-16T06:28:00.272Z,13.08
2022-10-16T06:33:04.541Z,13.26
2022-10-16T06:38:07.296Z,13.44
2022-10-16T06:43:10.004Z,13.64
2022-10-16T06:48:14.181Z,13.59
2022-10-16T06:53:16.930Z,13.73
2022-10-16T06:58:23.919Z,13.75
2022-10-16T07:03:29.485Z,13.66
2022-10-16T07:08:34.413Z,13.75
2022-10-16T07:13:38.072Z,14.01
2022-10-16T07:18:44.695Z,14.34
2022-10-16T07:23:51.898Z,14.44
2022-10-16T07:28:55.034Z,14.76
2022-10-16T07:34:00.578Z,14.88
2022-10-16T07:39:03.815Z,14.69
2022-10-16T07:44:07.650Z,15.05
2022-10-16T07:49:12.078Z,14.75
2022-10-16T07:54:14.827Z,14.98
2022-10-16T07:59:17.977Z,14.34
2022-10-16T08:04:22.153Z,14.52
2022-10-16T08:09:24.897Z,14.55
2022-10-16T08:14:27.844Z,15.42
2022-10-16T08:19:35.232Z,15.18
2022-10-16T08:24:38.118Z,15.27
2022-10-16T08:29:40.876Z,15.74
2022-10-16T08:34:44.999Z,15.51
2022-10-16T08:39:47.737Z,15.95
2022-10-16T08:45:25.198Z,15.65
2022-10-16T08:50:31.685Z,16.09
2022-10-16T08:55:40.736Z,16.39
2022-10-16T09:00:45.847Z,15.67
2022-10-16T09:06:02.965Z,15.37
2022-10-16T09:11:12.576Z,15.96
2022-10-16T09:16:22.779Z,15.94
2022-10-16T09:21:30.832Z,16.43
2022-10-16T09:26:33.607Z,16.49
2022-10-16T09:31:38.588Z,15.68
2022-10-16T09:36:46.839Z,16.35
2022-10-16T09:41:50.119Z,16.71
2022-10-16T09:47:03.528Z,17.00
2022-10-16T09:52:13.554Z,17.11
2022-10-16T09:57:16.696Z,16.85
2022-10-16T10:02:21.841Z,17.17
2022-10-16T10:07:29.396Z,17.62
2022-10-16T10:12:36.690Z,18.06
2022-10-16T10:17:48.447Z,17.76
2022-10-16T10:22:52.704Z,17.89
2022-10-16T10:28:11.971Z,17.89
2022-10-16T10:33:26.888Z,17.60
2022-10-16T10:38:40.312Z,17.18
2022-10-16T10:43:58.457Z,17.64
2022-10-16T10:49:17.055Z,18.22
2022-10-16T10:54:29.752Z,17.98
2022-10-16T10:59:45.649Z,16.54
2022-10-16T11:04:59.933Z,19.20
2022-10-16T11:10:14.939Z,19.33
2022-10-16T11:15:21.624Z,19.43
2022-10-16T11:20:27.889Z,18.71
2022-10-16T11:25:33.776Z,17.42
2022-10-16T11:30:45.303Z,17.02
2022-10-16T11:35:53.485Z,18.79
2022-10-16T11:41:05.280Z,18.74
2022-10-16T11:46:13.859Z,17.32
2022-10-16T11:51:23.349Z,17.34
2022-10-16T11:56:28.525Z,18.29
2022-10-16T12:01:40.490Z,19.47
2022-10-16T12:06:46.267Z,19.88
2022-10-16T12:11:50.548Z,20.79
2022-10-16T12:16:56.153Z,19.63
2022-10-16T12:22:00.430Z,20.17
2022-10-16T12:27:06.123Z,20.95
2022-10-16T12:32:45.782Z,20.54
2022-10-16T12:37:51.316Z,18.64
2022-10-16T12:42:55.681Z,18.05
2022-10-16T12:47:59.157Z,18.30
2022-10-16T12:53:03.807Z,19.54
2022-10-16T12:58:21.230Z,19.46
2022-10-16T13:03:50.218Z,19.65
2022-10-16T13:09:28.701Z,21.16
2022-10-16T13:14:56.323Z,21.72
2022-10-16T13:20:09.564Z,21.57
2022-10-16T13:25:24.449Z,21.65
2022-10-16T13:30:31.233Z,22.07
2022-10-16T13:35:35.923Z,22.68
2022-10-16T13:40:38.755Z,20.49
2022-10-16T13:45:42.993Z,21.45
2022-10-16T13:50:45.733Z,21.13
2022-10-16T13:55:48.466Z,20.84
2022-10-16T14:00:58.673Z,21.97
2022-10-16T14:06:03.856Z,20.53
2022-10-16T14:11:06.688Z,20.62
2022-10-16T14:16:12.902Z,20.69
2022-10-16T14:21:17.955Z,20.09
2022-10-16T14:26:23.846Z,20.24
2022-10-16T14:31:31.161Z,21.00
2022-10-16T14:36:35.954Z,20.85
2022-10-16T14:41:46.032Z,20.52
2022-10-16T14:46:50.417Z,20.89
2022-10-16T14:51:53.476Z,20.86
2022-10-16T14:56:58.632Z,20.80
2022-10-16T15:02:23.198Z,20.22
2022-10-16T15:07:26.803Z,19.85
2022-10-16T15:12:29.749Z,20.03
2022-10-16T15:17:33.867Z,20.74
2022-10-16T15:22:36.595Z,21.08
2022-10-16T15:27:41.186Z,20.78
2022-10-16T15:32:45.313Z,20.26
2022-10-16T15:37:49.071Z,19.58
2022-10-16T15:42:52.120Z,19.12
2022-10-16T15:47:56.220Z,18.78
2022-10-16T15:52:59.141Z,18.39
2022-10-16T15:58:01.958Z,17.87
2022-10-16T16:03:06.320Z,17.86
2022-10-16T16:08:09.302Z,17.83
2022-10-16T16:13:12.434Z,17.65
2022-10-16T16:18:16.550Z,17.60
2022-10-16T16:23:20.138Z,17.57
2022-10-16T16:28:22.981Z,17.46
2022-10-16T16:33:27.740Z,17.30
2022-10-16T16:38:32.266Z,17.34
2022-10-16T16:43:35.094Z,17.29
2022-10-16T16:48:40.209Z,17.23
2022-10-16T16:53:43.497Z,17.26
2022-10-16T16:58:47.279Z,17.17
2022-10-16T17:03:53.593Z,17.13
2022-10-16T17:08:57.009Z,17.12
2022-10-16T17:14:01.774Z,17.05
2022-10-16T17:19:08.260Z,16.97
2022-10-16T17:24:11.268Z,16.92
2022-10-16T17:29:14.619Z,16.87
2022-10-16T17:34:19.694Z,16.67
2022-10-16T17:39:23.300Z,16.61
2022-10-16T17:44:26.239Z,16.57
2022-10-16T17:49:30.547Z,16.51
2022-10-16T17:54:33.410Z,16.46
2022-10-16T17:59:36.246Z,16.25
2022-10-16T18:04:40.921Z,16.07
2022-10-16T18:10:09.844Z,16.04
2022-10-16T18:15:08.417Z,16.09
2022-10-16T18:20:13.700Z,16.09
2022-10-16T18:25:16.758Z,16.13
2022-10-16T18:30:19.697Z,16.17
2022-10-16T18:35:24.099Z,16.16
2022-10-16T18:40:27.169Z,16.09
2022-10-16T18:45:30.044Z,16.02
2022-10-16T18:50:34.474Z,15.89
2022-10-16T18:55:37.364Z,15.78
2022-10-16T19:00:40.232Z,15.58
2022-10-16T19:05:46.354Z,15.40
2022-10-16T19:10:49.206Z,15.42
2022-10-16T19:15:58.201Z,15.40
2022-10-16T19:26:15.957Z,15.36
2022-10-16T19:31:20.985Z,15.34
2022-10-16T19:36:27.235Z,15.29
2022-10-16T19:41:31.569Z,15.28
2022-10-16T19:46:35.160Z,15.32
2022-10-16T19:51:40.069Z,15.24
2022-10-16T19:56:43.306Z,15.30
2022-10-16T20:01:47.762Z,15.32
2022-10-16T20:06:51.999Z,15.36
2022-10-16T20:11:54.725Z,15.32
2022-10-16T20:16:57.628Z,15.30
2022-10-16T20:22:01.978Z,15.30
2022-10-16T20:27:04.886Z,15.32
2022-10-16T20:32:07.728Z,15.27
2022-10-16T20:37:11.920Z,15.26
2022-10-16T20:42:14.888Z,15.21
2022-10-16T20:47:17.821Z,15.35
2022-10-16T20:52:22.078Z,15.25
2022-10-16T20:57:25.199Z,14.44
2022-10-16T21:02:28.144Z,14.13
2022-10-16T21:07:32.334Z,13.94
2022-10-16T21:12:35.279Z,13.82
2022-10-16T21:17:38.053Z,13.82
2022-10-16T21:22:42.274Z,13.84
2022-10-16T21:27:46.079Z,13.80
2022-10-16T21:32:48.821Z,13.86
2022-10-16T21:37:52.949Z,13.86
2022-10-16T21:42:55.682Z,13.98
2022-10-16T21:47:58.504Z,14.03
2022-10-16T21:53:02.618Z,14.00
2022-10-16T21:58:05.388Z,14.03
2022-10-16T22:03:08.215Z,14.08
2022-10-16T22:08:12.347Z,14.08
2022-10-16T22:13:15.068Z,14.03
2022-10-16T22:18:17.804Z,13.97
2022-10-16T22:23:22.311Z,13.97
2022-10-16T22:28:25.181Z,13.93
2022-10-16T22:33:27.993Z,13.82
2022-10-16T22:38:32.799Z,13.72
2022-10-16T22:43:37.297Z,13.67
2022-10-16T22:48:40.379Z,13.63
2022-10-16T22:53:44.853Z,13.60
2022-10-16T22:58:47.669Z,13.53
2022-10-16T23:03:51.148Z,13.54
2022-10-16T23:08:56.957Z,13.57
2022-10-16T23:13:59.810Z,13.60
2022-10-16T23:19:02.652Z,13.60
2022-10-16T23:24:07.535Z,13.63
2022-10-16T23:29:10.603Z,13.64
2022-10-16T23:34:13.406Z,13.72
2022-10-16T23:39:17.841Z,13.69
2022-10-16T23:44:20.786Z,13.71
2022-10-16T23:49:23.664Z,13.68
2022-10-16T23:54:27.828Z,13.67
2022-10-16T23:59:30.566Z,13.61
